createdAt,value
2023-01-13T00:00:33.519Z,101081.80
2023-01-13T00:03:10.443Z,101075.40
2023-01-13T00:05:46.810Z,101078.20
2023-01-13T00:08:25.842Z,101072.20
2023-01-13T00:11:01.745Z,101073.00
2023-01-13T00:13:38.879Z,101069.00
2023-01-13T00:16:18.534Z,101065.40
2023-01-13T00:18:55.327Z,101063.40
2023-01-13T00:21:32.348Z,101059.60
2023-01-13T00:24:10.884Z,101062.60
2023-01-13T00:26:46.927Z,101059.60
2023-01-13T00:29:23.232Z,101066.00
2023-01-13T00:31:59.813Z,101069.80
2023-01-13T00:34:36.625Z,101070.00
2023-01-13T00:37:14.702Z,101069.80
2023-01-13T00:39:51.840Z,101065.40
2023-01-13T00:42:45.947Z,101070.00
2023-01-13T00:45:24.598Z,101071.00
2023-01-13T00:48:20.823Z,101061.40
2023-01-13T00:51:03.069Z,101062.20
2023-01-13T00:53:41.728Z,101066.60
2023-01-13T00:56:38.061Z,101070.80
2023-01-13T00:59:15.858Z,101072.00
2023-01-13T01:01:52.102Z,101074.20
2023-01-13T01:04:29.359Z,101068.40
2023-01-13T01:07:06.040Z,101069.80
2023-01-13T01:09:43.030Z,101075.00
2023-01-13T01:12:20.133Z,101077.00
2023-01-13T01:14:57.053Z,101074.40
2023-01-13T01:17:34.903Z,101072.40
2023-01-13T01:20:19.190Z,101075.20
2023-01-13T01:22:56.585Z,101069.00
2023-01-13T01:25:32.509Z,101064.40
2023-01-13T01:28:10.005Z,101062.40
2023-01-13T01:30:48.382Z,101062.40
2023-01-13T01:33:25.123Z,101057.60
2023-01-13T01:36:03.416Z,101051.80
2023-01-13T01:38:40.307Z,101052.80
2023-01-13T01:41:19.797Z,101051.00
2023-01-13T01:44:05.108Z,101044.80
2023-01-13T01:46:47.269Z,101046.80
2023-01-13T01:49:32.148Z,101039.60
2023-01-13T01:52:15.194Z,101035.60
2023-01-13T01:55:08.450Z,101030.80
2023-01-13T01:57:49.294Z,101027.40
2023-01-13T02:00:29.946Z,101025.60
2023-01-13T02:03:08.895Z,101025.00
2023-01-13T02:05:45.532Z,101021.60
2023-01-13T02:08:23.599Z,101014.80
2023-01-13T02:11:01.516Z,101014.40
2023-01-13T02:13:41.594Z,101014.20
2023-01-13T02:16:26.416Z,101019.00
2023-01-13T02:19:21.671Z,101017.60
2023-01-13T02:22:38.834Z,101016.00
2023-01-13T02:25:59.378Z,101018.80
2023-01-13T02:29:24.017Z,101016.60
2023-01-13T02:32:07.251Z,101007.60
2023-01-13T02:34:56.256Z,101005.40
2023-01-13T02:37:40.684Z,101005.20
2023-01-13T02:40:26.259Z,100999.20
2023-01-13T02:43:27.724Z,100993.60
2023-01-13T02:46:14.306Z,100990.40
2023-01-13T02:48:55.516Z,100982.60
2023-01-13T02:51:37.166Z,100983.40
2023-01-13T02:54:20.606Z,100980.40
2023-01-13T02:57:01.681Z,100971.60
2023-01-13T02:59:39.822Z,100965.20
2023-01-13T03:02:22.817Z,100954.60
2023-01-13T03:05:03.025Z,100945.20
2023-01-13T03:08:32.576Z,100948.60
2023-01-13T03:11:14.214Z,100959.80
2023-01-13T03:14:24.037Z,100949.60
2023-01-13T03:17:20.058Z,100952.20
2023-01-13T03:20:10.114Z,100955.60
2023-01-13T03:22:55.427Z,100960.20
2023-01-13T03:25:36.925Z,100959.60
2023-01-13T03:28:23.724Z,100957.80
2023-01-13T03:31:07.201Z,100959.80
2023-01-13T03:33:49.644Z,100963.40
2023-01-13T03:36:31.750Z,100955.40
2023-01-13T03:39:16.592Z,100956.80
2023-01-13T03:42:00.846Z,100960.00
2023-01-13T03:44:43.761Z,100960.00
2023-01-13T03:47:32.130Z,100955.80
2023-01-13T03:50:15.496Z,100955.60
2023-01-13T03:52:58.292Z,100953.80
2023-01-13T03:55:41.225Z,100953.80
2023-01-13T03:58:22.061Z,100955.60
2023-01-13T04:01:03.678Z,100957.60
2023-01-13T04:03:49.980Z,100953.60
2023-01-13T04:06:40.924Z,100946.00
2023-01-13T04:09:29.728Z,100946.40
2023-01-13T04:12:18.273Z,100944.00
2023-01-13T04:14:56.825Z,100942.40
2023-01-13T04:17:35.139Z,100938.00
2023-01-13T04:20:17.185Z,100936.00
2023-01-13T04:22:53.934Z,100937.60
2023-01-13T04:25:30.562Z,100937.60
2023-01-13T04:28:06.709Z,100938.60
2023-01-13T04:30:44.245Z,100937.80
2023-01-13T04:33:21.780Z,100932.60
2023-01-13T04:35:58.839Z,100939.20
2023-01-13T04:38:35.456Z,100939.00
2023-01-13T04:41:11.565Z,100945.00
2023-01-13T04:43:50.813Z,100950.80
2023-01-13T04:46:27.116Z,100951.80
2023-01-13T04:49:11.159Z,100952.20
2023-01-13T04:51:48.579Z,100948.00
2023-01-13T04:54:25.346Z,100942.60
2023-01-13T04:57:01.568Z,100949.60
2023-01-13T04:59:38.290Z,100949.60
2023-01-13T05:02:20.178Z,100947.40
2023-01-13T05:04:57.427Z,100948.00
2023-01-13T05:07:36.702Z,100954.20
2023-01-13T05:10:17.647Z,100957.20
2023-01-13T05:13:13.466Z,100953.00
2023-01-13T05:16:07.198Z,100952.60
2023-01-13T05:18:43.593Z,100948.00
2023-01-13T05:21:36.744Z,100956.80
2023-01-13T05:24:42.945Z,100955.60
2023-01-13T05:27:20.455Z,100959.40
2023-01-13T05:29:57.671Z,100963.80
2023-01-13T05:32:37.447Z,100964.40
2023-01-13T05:35:16.381Z,100971.20
2023-01-13T05:37:53.756Z,100965.60
2023-01-13T05:40:47.230Z,100966.80
2023-01-13T05:43:25.689Z,100967.20
2023-01-13T05:46:06.618Z,100975.60
2023-01-13T05:48:44.669Z,100988.60
2023-01-13T05:51:26.422Z,100989.80
2023-01-13T05:54:02.991Z,100984.80
2023-01-13T05:56:40.607Z,100985.60
2023-01-13T05:59:18.216Z,100977.80
2023-01-13T06:01:55.032Z,100971.40
2023-01-13T06:04:34.615Z,100978.00
2023-01-13T06:07:11.497Z,100978.20
2023-01-13T06:09:47.888Z,100973.80
2023-01-13T06:12:24.381Z,100967.60
2023-01-13T06:15:02.397Z,100964.80
2023-01-13T06:17:38.854Z,100972.20
2023-01-13T06:20:20.356Z,100974.00
2023-01-13T06:22:57.148Z,100976.80
2023-01-13T06:25:45.851Z,100985.80
2023-01-13T06:28:21.710Z,100988.40
2023-01-13T06:31:02.032Z,100979.00
2023-01-13T06:33:43.969Z,100985.60
2023-01-13T06:36:27.219Z,100990.00
2023-01-13T06:39:07.164Z,100988.60
2023-01-13T06:42:00.866Z,100991.00
2023-01-13T06:44:36.746Z,100995.00
2023-01-13T06:47:14.521Z,100993.20
2023-01-13T06:49:54.662Z,100995.00
2023-01-13T06:52:31.846Z,101000.20
2023-01-13T06:55:10.973Z,100999.00
2023-01-13T06:57:58.376Z,100989.40
2023-01-13T07:00:37.463Z,100990.20
2023-01-13T07:03:20.850Z,100992.40
2023-01-13T07:06:02.466Z,101004.00
2023-01-13T07:08:39.283Z,101004.80
2023-01-13T07:11:16.135Z,100993.20
2023-01-13T07:14:12.856Z,100999.60
2023-01-13T07:16:48.934Z,100999.60
2023-01-13T07:19:25.401Z,101011.60
2023-01-13T07:22:02.692Z,101012.00
2023-01-13T07:24:40.774Z,100998.40
2023-01-13T07:27:16.391Z,100997.00
2023-01-13T07:29:52.164Z,100995.80
2023-01-13T07:32:29.316Z,101002.00
2023-01-13T07:35:07.600Z,101009.40
2023-01-13T07:37:45.216Z,101010.60
2023-01-13T07:40:24.649Z,101007.20
2023-01-13T07:43:17.883Z,101008.20
2023-01-13T07:45:57.374Z,101014.00
2023-01-13T07:48:41.459Z,101020.40
2023-01-13T07:51:18.571Z,101018.60
2023-01-13T07:53:55.272Z,101021.00
2023-01-13T07:56:32.673Z,101022.20
2023-01-13T07:59:09.966Z,101023.20
2023-01-13T08:01:46.635Z,101020.60
2023-01-13T08:04:23.707Z,101027.00
2023-01-13T08:07:00.532Z,101037.80
2023-01-13T08:09:36.843Z,101027.00
2023-01-13T08:12:34.364Z,101019.00
2023-01-13T08:15:16.379Z,101021.00
2023-01-13T08:17:53.717Z,101029.80
2023-01-13T08:20:30.672Z,101032.60
2023-01-13T08:23:07.859Z,101038.00
2023-01-13T08:25:45.086Z,101035.20
2023-01-13T08:28:24.070Z,101031.40
2023-01-13T08:31:04.109Z,101026.40
2023-01-13T08:33:40.973Z,101030.40
2023-01-13T08:36:18.729Z,101033.20
2023-01-13T08:38:56.103Z,101027.20
2023-01-13T08:41:50.822Z,101029.00
2023-01-13T08:44:32.907Z,101022.60
2023-01-13T08:47:09.606Z,101014.00
2023-01-13T08:49:46.752Z,101011.60
2023-01-13T08:52:23.351Z,101010.40
2023-01-13T08:55:00.101Z,101008.60
2023-01-13T08:57:35.871Z,101008.20
2023-01-13T09:00:18.014Z,101014.00
2023-01-13T09:02:54.669Z,101017.40
2023-01-13T09:05:32.472Z,101014.60
2023-01-13T09:08:09.852Z,101017.40
2023-01-13T09:10:46.514Z,101016.40
2023-01-13T09:13:22.060Z,101014.40
2023-01-13T09:15:59.752Z,101010.80
2023-01-13T09:18:36.334Z,101008.20
2023-01-13T09:21:19.912Z,101014.60
2023-01-13T09:23:56.384Z,101021.00
2023-01-13T09:26:34.620Z,101028.80
2023-01-13T09:29:10.946Z,101035.00
2023-01-13T09:31:47.762Z,101030.80
2023-01-13T09:34:50.982Z,101031.80
2023-01-13T09:37:28.105Z,101041.60
2023-01-13T09:40:05.551Z,101038.80
2023-01-13T09:43:10.488Z,101045.40
2023-01-13T09:45:56.131Z,101043.00
2023-01-13T09:48:52.093Z,101030.40
2023-01-13T09:51:42.673Z,101011.80
2023-01-13T09:54:33.930Z,101012.80
2023-01-13T09:57:18.725Z,101002.20
2023-01-13T09:59:55.651Z,100994.40
2023-01-13T10:03:07.501Z,100998.80
2023-01-13T10:05:51.825Z,100984.00
2023-01-13T10:08:34.344Z,100987.20
2023-01-13T10:11:35.053Z,100987.80
2023-01-13T10:14:22.175Z,100976.20
2023-01-13T10:17:12.012Z,100978.20
2023-01-13T10:19:58.191Z,100978.80
2023-01-13T10:23:01.885Z,100979.80
2023-01-13T10:25:56.255Z,100968.00
2023-01-13T10:28:33.162Z,100961.60
2023-01-13T10:31:17.718Z,100959.00
2023-01-13T10:34:00.673Z,100958.40
2023-01-13T10:36:39.382Z,100956.60
2023-01-13T10:39:23.780Z,100951.60
2023-01-13T10:42:09.094Z,100953.00
2023-01-13T10:44:57.688Z,100955.00
2023-01-13T10:47:38.166Z,100952.40
2023-01-13T10:50:37.249Z,100954.00
2023-01-13T10:53:31.893Z,100951.20
2023-01-13T10:56:18.215Z,100941.00
2023-01-13T10:58:54.944Z,100935.40
2023-01-13T11:01:34.699Z,100932.40
2023-01-13T11:04:38.584Z,100935.60
2023-01-13T11:07:31.959Z,100933.00
2023-01-13T11:10:29.263Z,100921.60
2023-01-13T11:13:17.377Z,100921.60
2023-01-13T11:16:01.937Z,100918.40
2023-01-13T11:19:02.533Z,100921.80
2023-01-13T11:21:49.800Z,100919.40
2023-01-13T11:24:37.128Z,100914.80
2023-01-13T11:27:24.628Z,100911.20
2023-01-13T11:30:12.804Z,100907.00
2023-01-13T11:33:17.657Z,100900.20
2023-01-13T11:36:07.092Z,100901.00
2023-01-13T11:38:53.223Z,100907.00
2023-01-13T11:42:09.504Z,100906.60
2023-01-13T11:44:52.476Z,100909.80
2023-01-13T11:47:34.308Z,100912.80
2023-01-13T11:50:22.925Z,100909.60
2023-01-13T11:53:18.071Z,100902.40
2023-01-13T11:56:11.239Z,100900.80
2023-01-13T11:59:31.322Z,100900.80
2023-01-13T12:02:30.356Z,100888.00
2023-01-13T12:05:24.927Z,100894.00
2023-01-13T12:08:14.496Z,100885.40
2023-01-13T12:11:07.044Z,100878.40
2023-01-13T12:14:05.009Z,100877.60
2023-01-13T12:16:49.057Z,100870.20
2023-01-13T12:19:32.676Z,100864.00
2023-01-13T12:22:29.201Z,100868.40
2023-01-13T12:25:17.884Z,100867.60
2023-01-13T12:28:03.091Z,100857.60
2023-01-13T12:30:48.043Z,100861.40
2023-01-13T12:33:42.962Z,100856.60
2023-01-13T12:36:28.291Z,100850.00
2023-01-13T12:39:11.893Z,100844.20
2023-01-13T12:42:17.898Z,100842.20
2023-01-13T12:45:27.160Z,100839.20
2023-01-13T12:48:04.369Z,100828.00
2023-01-13T12:51:05.023Z,100828.40
2023-01-13T12:53:43.078Z,100823.40
2023-01-13T12:56:50.967Z,100827.60
2023-01-13T12:59:49.217Z,100824.00
2023-01-13T13:02:45.041Z,100819.60
2023-01-13T13:05:58.451Z,100817.40
2023-01-13T13:08:49.242Z,100820.40
2023-01-13T13:12:03.612Z,100814.40
2023-01-13T13:15:25.888Z,100802.20
2023-01-13T13:18:31.510Z,100804.80
2023-01-13T13:21:11.122Z,100808.60
2023-01-13T13:24:15.975Z,100805.40
2023-01-13T13:26:52.539Z,100808.00
2023-01-13T13:29:52.461Z,100804.40
2023-01-13T13:33:09.148Z,100803.40
2023-01-13T13:36:08.459Z,100799.00
2023-01-13T13:39:42.323Z,100805.00
2023-01-13T13:42:43.027Z,100809.00
2023-01-13T13:45:43.263Z,100805.80
2023-01-13T13:48:31.890Z,100803.00
2023-01-13T13:51:28.165Z,100803.40
2023-01-13T13:54:08.720Z,100800.60
2023-01-13T13:56:48.274Z,100805.60
2023-01-13T13:59:31.512Z,100803.00
2023-01-13T14:02:18.196Z,100800.60
2023-01-13T14:05:08.247Z,100790.80
2023-01-13T14:07:57.469Z,100792.20
2023-01-13T14:10:43.388Z,100786.60
2023-01-13T14:13:26.717Z,100785.60
2023-01-13T14:16:04.996Z,100787.00
2023-01-13T14:18:50.546Z,100788.80
2023-01-13T14:21:30.551Z,100788.40
2023-01-13T14:24:21.207Z,100795.20
2023-01-13T14:27:08.428Z,100798.60
2023-01-13T14:29:45.201Z,100795.00
2023-01-13T14:32:26.411Z,100800.00
2023-01-13T14:35:02.984Z,100807.00
2023-01-13T14:37:41.939Z,100814.40
2023-01-13T14:40:50.648Z,100815.00
2023-01-13T14:43:33.940Z,100807.40
2023-01-13T14:46:10.801Z,100799.40
2023-01-13T14:48:49.821Z,100804.00
2023-01-13T14:51:34.994Z,100804.00
2023-01-13T14:54:50.056Z,100801.40
2023-01-13T14:57:35.174Z,100805.60
2023-01-13T15:00:25.258Z,100807.80
2023-01-13T15:03:18.544Z,100807.00
2023-01-13T15:05:59.026Z,100803.20
2023-01-13T15:08:42.249Z,100807.00
2023-01-13T15:11:29.983Z,100797.20
2023-01-13T15:14:12.285Z,100803.40
2023-01-13T15:16:48.362Z,100804.20
2023-01-13T15:19:24.921Z,100806.60
2023-01-13T15:22:01.374Z,100808.80
2023-01-13T15:24:37.957Z,100811.00
2023-01-13T15:27:26.566Z,100815.60
2023-01-13T15:30:03.289Z,100810.00
2023-01-13T15:32:39.584Z,100814.40
2023-01-13T15:35:21.319Z,100809.20
2023-01-13T15:37:59.284Z,100820.00
2023-01-13T15:40:39.726Z,100814.40
2023-01-13T15:43:37.711Z,100811.60
2023-01-13T15:46:34.300Z,100807.20
2023-01-13T15:49:17.763Z,100807.40
2023-01-13T15:51:54.701Z,100807.40
2023-01-13T15:54:31.736Z,100816.00
2023-01-13T15:57:08.588Z,100818.40
2023-01-13T15:59:45.201Z,100819.40
2023-01-13T16:02:22.954Z,100820.60
2023-01-13T16:04:59.236Z,100830.60
2023-01-13T16:07:35.002Z,100830.20
2023-01-13T16:10:21.778Z,100848.60
2023-01-13T16:12:58.505Z,100855.20
2023-01-13T16:15:39.051Z,100857.20
2023-01-13T16:18:23.859Z,100866.00
2023-01-13T16:21:00.310Z,100862.40
2023-01-13T16:23:36.982Z,100847.80
2023-01-13T16:26:24.875Z,100860.80
2023-01-13T16:29:02.548Z,100853.60
2023-01-13T16:31:40.343Z,100849.20
2023-01-13T16:34:16.203Z,100855.20
2023-01-13T16:36:52.636Z,100854.60
2023-01-13T16:39:35.480Z,100863.80
2023-01-13T16:42:11.773Z,100868.00
2023-01-13T16:44:49.439Z,100875.20
2023-01-13T16:47:26.047Z,100883.40
2023-01-13T16:50:02.804Z,100877.80
2023-01-13T16:52:42.899Z,100874.60
2023-01-13T16:55:18.916Z,100877.20
2023-01-13T16:58:00.377Z,100885.80
2023-01-13T17:00:36.990Z,100891.40
2023-01-13T17:03:13.002Z,100876.80
2023-01-13T17:05:49.781Z,100884.60
2023-01-13T17:08:27.401Z,100894.60
2023-01-13T17:11:06.540Z,100900.00
2023-01-13T17:13:42.595Z,100889.00
2023-01-13T17:16:26.646Z,100891.00
2023-01-13T17:19:02.879Z,100897.60
2023-01-13T17:21:38.544Z,100904.20
2023-01-13T17:24:15.493Z,100909.00
2023-01-13T17:26:54.094Z,100907.40
2023-01-13T17:29:31.503Z,100907.20
2023-01-13T17:32:07.621Z,100912.00
2023-01-13T17:34:44.081Z,100909.60
2023-01-13T17:37:20.571Z,100901.80
2023-01-13T17:39:56.522Z,100904.60
2023-01-13T17:42:35.253Z,100907.80
2023-01-13T17:45:16.584Z,100910.20
2023-01-13T17:47:53.129Z,100922.00
2023-01-13T17:50:31.128Z,100912.20
2023-01-13T17:53:07.259Z,100912.40
2023-01-13T17:55:44.355Z,100916.40
2023-01-13T17:58:20.036Z,100918.60
2023-01-13T18:00:55.617Z,100913.20
2023-01-13T18:03:32.382Z,100918.00
2023-01-13T18:06:16.296Z,100922.00
2023-01-13T18:08:52.632Z,100924.20
2023-01-13T18:11:30.220Z,100915.20
2023-01-13T18:14:08.142Z,100923.60
2023-01-13T18:16:43.989Z,100922.20
2023-01-13T18:19:37.207Z,100931.20
2023-01-13T18:24:11.427Z,100932.60
2023-01-13T18:27:04.857Z,100930.20
2023-01-13T18:29:41.874Z,100932.00
2023-01-13T18:32:17.756Z,100934.20
2023-01-13T18:35:05.013Z,100937.00
2023-01-13T18:37:43.141Z,100942.80
2023-01-13T18:40:21.901Z,100943.00
2023-01-13T18:42:59.433Z,100945.60
2023-01-13T18:45:36.615Z,100943.60
2023-01-13T18:48:15.157Z,100945.40
2023-01-13T18:50:51.590Z,100955.80
2023-01-13T18:53:28.428Z,100959.20
2023-01-13T18:56:05.696Z,100956.20
2023-01-13T18:58:51.387Z,100958.00
2023-01-13T19:01:30.024Z,100965.20
2023-01-13T19:04:16.303Z,100966.60
2023-01-13T19:06:53.368Z,100961.60
2023-01-13T19:09:31.276Z,100967.60
2023-01-13T19:12:12.076Z,100969.00
2023-01-13T19:14:49.852Z,100973.60
2023-01-13T19:17:27.891Z,100974.60
2023-01-13T19:20:05.539Z,100972.40
2023-01-13T19:22:42.428Z,100979.00
2023-01-13T19:25:19.720Z,100979.40
2023-01-13T19:27:56.788Z,100985.00
2023-01-13T19:30:34.492Z,100987.00
2023-01-13T19:33:11.706Z,100983.40
2023-01-13T19:35:48.199Z,100982.80
2023-01-13T19:38:25.563Z,100988.20
2023-01-13T19:41:06.610Z,100986.60
2023-01-13T19:44:00.114Z,100995.20
2023-01-13T19:46:36.090Z,100988.20
2023-01-13T19:49:13.731Z,100993.60
2023-01-13T19:51:52.398Z,100989.40
2023-01-13T19:54:28.738Z,100984.80
2023-01-13T19:57:05.082Z,100987.00
2023-01-13T19:59:42.878Z,100990.80
2023-01-13T20:02:31.513Z,100991.20
2023-01-13T20:05:10.132Z,100992.00
2023-01-13T20:07:47.372Z,100996.00
2023-01-13T20:10:26.195Z,100989.40
2023-01-13T20:13:02.378Z,100997.00
2023-01-13T20:15:39.582Z,100993.00
2023-01-13T20:18:15.626Z,100987.40
2023-01-13T20:20:51.986Z,100990.40
2023-01-13T20:23:31.721Z,100988.20
2023-01-13T20:26:09.391Z,100984.20
2023-01-13T20:28:46.993Z,100986.00
2023-01-13T20:31:23.613Z,100993.00
2023-01-13T20:33:59.793Z,100985.40
2023-01-13T20:36:43.604Z,100994.40
2023-01-13T20:39:22.658Z,101000.20
2023-01-13T20:42:16.411Z,101002.20
2023-01-13T20:44:53.503Z,100992.40
2023-01-13T20:47:30.585Z,100986.40
2023-01-13T20:50:07.980Z,100986.60
2023-01-13T20:52:44.648Z,100990.20
2023-01-13T20:55:21.430Z,100988.40
2023-01-13T20:57:57.601Z,100982.00
2023-01-13T21:00:35.003Z,100982.60
2023-01-13T21:03:11.437Z,100984.40
2023-01-13T21:05:47.787Z,100981.80
2023-01-13T21:08:23.879Z,100992.20
2023-01-13T21:11:11.181Z,100986.40
2023-01-13T21:14:04.385Z,100988.00
2023-01-13T21:16:41.873Z,100979.00
2023-01-13T21:19:19.073Z,100977.00
2023-01-13T21:21:55.211Z,100979.60
2023-01-13T21:24:32.839Z,100984.80
2023-01-13T21:27:10.794Z,100997.00
2023-01-13T21:29:48.021Z,101002.80
2023-01-13T21:32:24.337Z,101005.60
2023-01-13T21:35:02.055Z,101007.00
2023-01-13T21:37:40.989Z,101004.20
2023-01-13T21:40:21.137Z,101008.20
2023-01-13T21:43:14.899Z,101012.80
2023-01-13T21:46:22.629Z,101017.40
2023-01-13T21:48:59.114Z,101013.40
2023-01-13T21:51:39.805Z,101014.60
2023-01-13T21:54:15.668Z,101017.40
2023-01-13T21:57:00.531Z,101019.00
2023-01-13T21:59:36.619Z,101021.60
2023-01-13T22:02:26.828Z,101010.20
2023-01-13T22:05:04.038Z,101021.80
2023-01-13T22:07:41.949Z,101029.00
2023-01-13T22:10:21.389Z,101029.60
2023-01-13T22:13:20.541Z,101032.20
2023-01-13T22:15:57.177Z,101030.80
2023-01-13T22:18:33.538Z,101031.40
2023-01-13T22:21:11.225Z,101037.80
2023-01-13T22:23:47.679Z,101040.00
2023-01-13T22:26:24.041Z,101034.60
2023-01-13T22:29:02.438Z,101033.80
2023-01-13T22:31:38.417Z,101041.20
2023-01-13T22:34:16.479Z,101047.00
2023-01-13T22:36:53.585Z,101043.60
2023-01-13T22:39:30.237Z,101043.40
2023-01-13T22:42:06.550Z,101047.20
2023-01-13T22:44:43.271Z,101045.40
2023-01-13T22:47:20.199Z,101037.00
2023-01-13T22:49:57.158Z,101038.40
2023-01-13T22:52:33.745Z,101045.00
2023-01-13T22:55:13.804Z,101041.20
2023-01-13T22:57:50.267Z,101034.40
2023-01-13T23:00:30.212Z,101027.80
2023-01-13T23:03:09.582Z,101028.60
2023-01-13T23:05:45.764Z,101034.40
2023-01-13T23:08:22.577Z,101036.40
2023-01-13T23:11:06.429Z,101032.60
2023-01-13T23:13:43.680Z,101037.20
2023-01-13T23:16:23.637Z,101044.60
2023-01-13T23:18:59.660Z,101049.20
2023-01-13T23:21:38.952Z,101058.20
2023-01-13T23:24:16.617Z,101061.60
2023-01-13T23:26:52.920Z,101060.00
2023-01-13T23:29:30.087Z,101068.00
2023-01-13T23:32:07.112Z,101070.20
2023-01-13T23:34:43.517Z,101078.00
2023-01-13T23:37:19.532Z,101077.00
2023-01-13T23:39:56.067Z,101079.60
2023-01-13T23:42:32.961Z,101081.20
2023-01-13T23:45:12.067Z,101076.60
2023-01-13T23:47:50.550Z,101080.20
2023-01-13T23:50:28.634Z,101082.80
2023-01-13T23:53:05.209Z,101088.00
2023-01-13T23:55:41.661Z,101088.40
2023-01-13T23:58:18.259Z,101092.60
